Messages
User
Login
Folder
Up
0 folders, 80 files, 1.1 Gbytes
Select

0 items selected

Actions
Get list
Server information HttpFileServer 2.3k
Server time: 9/21/2017 9:32:05 AM
Server uptime: (121 days) 23:06:47
Name.extension Size Timestamp Hits
HALAL_20170313_NST_Countries_can_work_on_opportunities_in_halal_industry.pdf 7.1 MB3/13/2017 9:31:03 AM3
HALAL_20170313_NST_ISLAMIC_CAPITAL_MARKET_CAN_SUPPORT_FINANCING_NEEDS.pdf 25.9 MB3/13/2017 2:35:55 PM3
LAW_07032017__TS_Thi_Huong.pdf 5.4 MB3/10/2017 10:47:08 AM3
LAW_07032017_TS_ Kasthuri_rapped_ for_ defending_ Penang_ govt’s_ 8ha_ land_ offer.pdf 4.8 MB3/10/2017 11:02:56 AM3
LAW_10032017_TS_16_ cops_ in_ the_ dock_ over_bribery.pdf 10.3 MB3/10/2017 11:26:05 AM2
LAW_10032017_TS_Exco_ man_ held_ son_ out_ on_ bail.pdf 30.4 MB3/10/2017 11:14:59 AM2
LAW_10032017_TS_New_Child_Sec_Crimes_Law_Could_implemented_in_June.pdf 4.9 MB3/10/2017 11:59:33 AM4
LAW_20170306_NST_Experts_ weigh_ in_ on_ the_ worth_ of_ N. Korea’s_‘friendship’.pdf 11.7 MB3/9/2017 3:48:54 PM3
LAW_20170306_NST_NUR_JAZLAN_KANG_MUST_COMPLY_WITH_ORDER_TO_LEAVE.pdf 10.1 MB3/6/2017 5:43:42 PM2
LAW_20170306_TS_CJ_Read_Judgement_Before_Criticising.pdf 10.3 MB3/6/2017 4:39:18 PM4
LAW_20170306_TS_Two_Guards_Helds_For_Sodomy.pdf 6.8 MB3/6/2017 5:32:49 PM2
LAW_20170307_Court_ urged _to_ dismiss_ judicial_ review_ bid_ by_ Maria.pdf 6.8 MB3/7/2017 9:50:55 PM3
LAW_20170307_Datuk_ among_ 29_ members_ of_ Gang_ 360 _Devan_charged.pdf 31.9 MB3/7/2017 8:01:24 PM2
LAW_20170307_NST_‘3_TEAMS_PROBED_DENTAL_CLINIC’.pdf 7.8 MB3/8/2017 4:07:01 PM2
LAW_20170307_NST_All_diplomats_posted_here_must_respect_our_laws_says_Najib.pdf 9.0 MB3/7/2017 4:05:41 PM3
LAW_20170307_NST_ARRESTS_OF_I.S_DUO_DUE_TO_TRAITOR_SAYS_MALAYSIAN_I.S_LEADER_IN_SYRIA.pdf 9.1 MB3/7/2017 4:33:55 PM4
LAW_20170307_NST_Cabinet_ministers_laud _royal_address.pdf 4.5 MB3/8/2017 3:50:34 PM4
LAW_20170307_NST_Dad_claims_trial_to_incest_with_daughter.pdf 14.1 MB3/8/2017 4:10:48 PM2
LAW_20170307_NST_Ex-MIC_Youth_chief_28 _others_charged.pdf 18.4 MB3/8/2017 3:37:57 PM2
LAW_20170307_NST_Ex-politician_linked_to_2_more_gangs.pdf 3.6 MB3/8/2017 3:42:04 PM3
LAW_20170307_NST_FAM_told_not_to_sent_national_football_team_to_Pyongyang.pdf 6.2 MB3/7/2017 4:13:07 PM4
LAW_20170307_NST_HEALTH_MINISTRY_MAINTAINS_STAND.pdf 8.8 MB3/7/2017 4:20:27 PM3
LAW_20170307_NST_King_opens_new_Dewan_Rakyat_term.pdf 15.2 MB3/8/2017 3:45:41 PM2
LAW_20170307_NST_MACC_NABS_TWO_COPS_FOR_GRAFT.pdf 9.2 MB3/8/2017 3:28:56 PM4
LAW_20170307_NST_MANY_STILL_RIDING_WITHOUT_HELMETS.pdf 10.8 MB3/8/2017 4:03:07 PM2
LAW_20170307_NST_N_Korea_fires_4_banned_ballistic_missiles_into_sea.pdf 10.4 MB3/7/2017 4:39:03 PM2
LAW_20170307_NST_NAJIB_WE_ARE_TOUGH_ON_EXTREMISM.pdf 19.0 MB3/8/2017 3:55:52 PM2
LAW_20170307_NST_Padi_farmer_who_ran_amok_gets_5_year_’ jail,_rotan.pdf 2.2 MB3/8/2017 4:19:50 PM3
LAW_20170307_NST_PM_Malaysia_determined_to_uncover_truth.pdf 4.5 MB3/7/2017 3:52:00 PM4
LAW_20170307_NST_Security_guards_charged_with_raping_2_primary_school_pupils.pdf 7.6 MB3/8/2017 4:16:10 PM4
LAW_20170307_NST_SENT_PACKING.pdf 31.5 MB3/7/2017 3:46:12 PM2
LAW_20170307_NST_Victim_did_a_lot_to_help_those_in_need_say_netizens.pdf 6.8 MB3/8/2017 3:59:56 PM4
LAW_20170307_TS_Chief_ justice_ signs_ deal_ with_ DIFC.pdf 2.7 MB3/7/2017 10:29:49 PM4
LAW_20170307_TS_Court_ urged _to_ dismiss_ judicial_ review_ bid_ by_ Maria.pdf 6.8 MB3/7/2017 9:50:55 PM4
LAW_20170307_TS_Datuk_ among_ 29_ members_ of_ Gang_ 360 _Devan_charged.pdf 31.9 MB3/7/2017 8:01:24 PM2
LAW_20170307_TS_Girl_In_Custody_is_Fine.pdf 15.4 MB3/7/2017 9:32:48 PM2
LAW_20170307_TS_I_Want_My_Child_Have_Full_Right.pdf 8.1 MB3/7/2017 10:25:36 PM2
LAW_20170307_TS_Khalid_We_Do_Not.pdf 4.9 MB3/7/2017 9:05:13 PM2
LAW_20170307_TS_Not_Playing_Ball.pdf 18.7 MB3/7/2017 8:05:06 PM2
LAW_20170307_TS_Probe_Team_Set_Up.pdf 6.2 MB3/7/2017 8:36:56 PM5
LAW_20170307_TS_Sultan _Nazrin_Educate_Firm.pdf 17.0 MB3/7/2017 9:41:51 PM2
LAW_20170309_NST_‘Inspection_carried_out_on_clinic_legally_sound’.pdf 7.9 MB3/9/2017 4:46:58 PM4
LAW_20170309_NST_2_charged_with_55_counts_over_prostitution_raped.pdf 2.2 MB3/9/2017 4:40:08 PM6
LAW_20170309_NST_WOMAN_GETS_6_MONTHS’_JAIL_FOR_SLAPPING_SON’S_TEACHER.pdf 15.8 MB3/9/2017 4:21:44 PM3
LAW_20170310_NST_Datuk_Vida_settles_RM4.2m_GST_arrears.pdf 2.5 MB3/10/2017 4:14:18 PM4
LAW_20170310_NST_JOHOR_EXCO_MAN_HELD_IN_REAL_ESTATE_SCANDAL_PROBE.pdf 31.7 MB3/10/2017 4:03:01 PM3
LAW_20170310_NST_Liow_ Group_cycling_not_allowed_on_highways.pdf 6.1 MB3/10/2017 4:24:10 PM3
LAW_20170310_NST_MAN_WHO_CALLED_PASTOR’S_FAMILY_TO_DEMAND_RANSOM_ARRESTED.pdf 5.8 MB3/10/2017 3:43:01 PM3
LAW_20170310_NST_NET_UPROAR_OVER_TEACHER_MUM_SPAT.pdf 10.5 MB3/10/2017 4:33:49 PM2
LAW_20170310_NST_Woman_to_be_charged_with_murder_of_maid_today.pdf 10.8 MB3/10/2017 4:40:19 PM2
PTAR_20170301_BH_CIMB_sasar_pengukuhan_pendapatan.pdf 14.8 MB4/10/2017 10:15:15 AM2
PTAR_20170301_HM_Batik_Madu_Tiga.pdf 15.1 MB4/10/2017 11:04:34 AM2
PTAR_20170301_NST_In_search_Wan_Azhar_Batik.pdf 33.3 MB4/10/2017 4:09:42 PM2
PTAR_20170301_TS_Customs_targets_quick_refunds.pdf 6.2 MB4/11/2017 10:44:45 AM4
PTAR_20170302_HM_Berkembang_seiring_industri_takaful_tempatan.pdf 16.0 MB4/10/2017 11:20:37 AM3
PTAR_20170303_HM_Tumbuh_Sederhana.pdf 11.8 MB4/10/2017 11:52:59 AM3
PTAR_20170303_HM_Ubah_wang_haramRM1.57j.pdf 15.4 MB4/10/2017 11:45:55 AM3
PTAR_20170303_TS_Engineering_firm’s_ex-CEO_claims_trial_in_graft_cases.pdf 6.1 MB4/11/2017 10:51:09 AM3
PTAR_20170304_HM_Kertas_dinding_terawal_dicetak_pada_1509.pdf 13.3 MB4/10/2017 12:09:53 PM2
PTAR_20170305_NST_Capturing_The_blues_in_a_paintbrush.pdf 74.8 MB4/10/2017 5:16:14 PM0
PTAR_20170311_HM_Keunikan_lukisan_Mural.pdf 13.1 MB4/10/2017 12:23:05 PM2
PTAR_20170311_HM_Sentuhan_Islamik_Modesty.pdf 52.0 MB4/10/2017 2:50:30 PM0
PTAR_20170312_NST_Mona_lisa_is_smiling.pdf 28.7 MB4/10/2017 4:55:37 PM4
PTAR_20170313_HM_Ekonomi_Islam.pdf 6.5 MB4/10/2017 3:37:06 PM4
PTAR_20170313_NST_Malaysia_is_top_investment.pdf 8.8 MB4/10/2017 4:47:56 PM4
PTAR_20170314_NST_Bank Negara_Macc_IRB_to_jointly_combat.pdf 3.3 MB4/10/2017 5:02:34 PM4
PTAR_20170315_HM_Kolaborasi_Unik_dan_abstrak.pdf 52.6 MB4/10/2017 3:52:55 PM0
PTAR_20170317_HM_Emosi_dalam_warna.pdf 38.5 MB4/11/2017 11:16:46 AM2
PTAR_20170318_BH_Usia_21tahun_mahir_buat_keris.pdf 15.8 MB3/29/2017 2:13:02 PM3
PTAR_20170318_HM_Seni_Seramik_Sayong.pdf 33.0 MB4/10/2017 4:00:27 PM3
PTAR_20170323_NST_Shiburi_batik.pdf 46.2 MB3/31/2017 4:09:28 PM0
PTAR_20170329_BH_Pelukis_tidak_kira_masa_berkarya.pdf 28.4 MB3/31/2017 4:25:41 PM3
PUU_20170317_NST_Driver_to_be_charged_with_drug_related_offence_today.pdf 2.7 MB3/17/2017 11:34:28 AM3
PUU_20170322_NST_ACCUSED_MAY_FACE_MURDER_RAP.pdf 5.0 MB3/22/2017 3:56:44 PM3
PUU_20170322_NST_Datuk_Seri_11_others_claim_trial_to_rioting.pdf 9.6 MB3/22/2017 4:26:38 PM4
PUU_20170322_NST_I_WAS_RAPED_CLAIMS_MASSEUSE.pdf 6.0 MB3/22/2017 4:13:33 PM3
PUU_20170323_NST_EAIC_to_investigate_masseuse's_claims.pdf 7.4 MB3/27/2017 9:29:10 AM3
PUU_20170327_NST_IDENTITY_TO_BE_REVEALED_SOON.pdf 6.1 MB3/27/2017 11:23:07 AM4
PUU_20170327_NST_NO_COMPROMISE_ON_MISSING_GUNS.pdf 25.1 MB3/27/2017 11:34:07 AM2
PUU_20170327_TS_Former_CJ_slammed_over_remarks.pdf 8.9 MB3/27/2017 2:53:54 PM3